Adams Field
KLIT : now visible

Airfield :











YOU CAN JOIN US ON...

 
LOGIN :

Register | Disclaimer

   EN    FR    IT 

 









Legend :    VFR   Marginal VFR   IFR   Intensive IFR   Very Intensive IFR
Visi :
Ceiling :
>= 8 km
>= 3000ft
5 to 8 km
1000 to 3000 ft
1500m to 5 km
500 to 1000 ft
800 to 1500m
200 to 500 ft
< 800m
< 200 ft
Symbols :   Thunderstorms  Fog  Heavy snow  Heavy precipitations  Wind > 20 kt







- Airport Elevation : 262 ft
- IATA code : LIT


KLIT - Adams Field

CURRENT METAR :
  • 172253Z 32007KT 10SM BKN150 OVC250 07/00 A2994 RMK AO2 SLP142 T00720000 $

EXPIRED METARs :
  • 172153Z 32011KT 10SM SCT120 OVC250 07/00 A2992 RMK AO2 SLP134 T00720000 $
  • 172053Z 29012KT 10SM FEW025 SCT120 BKN250 07/01 A2991 RMK AO2 SLP131 T00720011 58001 $
  • 172024Z 30008KT 10SM SCT022 BKN120 OVC250 06/01 A2991 RMK AO2 BINOVC T00610011 $
  • 171953Z COR 29011KT 10SM BKN022 OVC110 06/01 A2991 RMK AO2 SLP131 T00560011 $

TAF KLIT
Valid from the 17 at 21:00 until the 18 at 18:00 UTC


172038Z 1721/1818 30008KT P6SM SCT025 BKN120 OVC250
FM180000 35007KT P6SM BKN250
FM181500 03009KT P6SM SKC
KZME FIR / North America



MET'MAP, your aeronautical weather chart ! - Copyright ORBIFLY December 2007 - Disclaimer

ORBIFLY MET'MAP TEAM :

Programming & Development : Alexandra Zaïnal
Concept & Development : Baudouin d'Aumeries
Co-Development & Prog : Marc-Olivier Méhu
Technical & hardware support : Manuel Goepfert

Contact : metmap@orbifly.com




SOURCES & CREDITS :

   NOAA       Earth
Advisory